createdAt,value
2023-02-25T00:01:57.838Z,20.02
2023-02-25T00:04:31.728Z,21.50
2023-02-25T00:07:01.553Z,19.55
2023-02-25T00:09:33.011Z,18.33
2023-02-25T00:12:01.438Z,19.35
2023-02-25T00:14:30.192Z,18.90
2023-02-25T00:16:58.600Z,19.67
2023-02-25T00:19:27.743Z,18.67
2023-02-25T00:22:02.939Z,18.55
2023-02-25T00:24:31.312Z,18.02
2023-02-25T00:26:59.589Z,17.08
2023-02-25T00:29:27.966Z,19.33
2023-02-25T00:31:56.408Z,17.67
2023-02-25T00:34:24.800Z,18.83
2023-02-25T00:36:55.973Z,17.77
2023-02-25T00:39:42.359Z,17.55
2023-02-25T00:42:15.714Z,17.17
2023-02-25T00:44:49.294Z,19.42
2023-02-25T00:47:20.177Z,19.60
2023-02-25T00:49:49.356Z,17.20
2023-02-25T00:52:18.098Z,18.77
2023-02-25T00:54:49.637Z,17.08
2023-02-25T00:57:17.916Z,18.20
2023-02-25T00:59:46.109Z,16.88
2023-02-25T01:02:14.673Z,17.30
2023-02-25T01:04:43.458Z,17.95
2023-02-25T01:07:11.881Z,18.77
2023-02-25T01:09:40.505Z,18.52
2023-02-25T01:12:10.805Z,18.73
2023-02-25T01:14:39.095Z,18.27
2023-02-25T01:17:09.879Z,18.80
2023-02-25T01:19:38.089Z,19.10
2023-02-25T01:22:07.321Z,18.38
2023-02-25T01:24:35.829Z,17.85
2023-02-25T01:27:06.036Z,18.10
2023-02-25T01:29:39.209Z,17.85
2023-02-25T01:32:10.145Z,17.02
2023-02-25T01:34:40.082Z,15.57
2023-02-25T01:37:10.652Z,16.95
2023-02-25T01:39:42.424Z,17.02
2023-02-25T01:42:15.304Z,17.00
2023-02-25T01:45:17.409Z,16.00
2023-02-25T01:47:50.991Z,16.60
2023-02-25T01:50:19.999Z,16.33
2023-02-25T01:52:49.412Z,16.65
2023-02-25T01:55:17.995Z,17.70
2023-02-25T01:57:46.877Z,17.35
2023-02-25T02:00:16.973Z,14.23
2023-02-25T02:02:49.474Z,14.88
2023-02-25T02:05:18.772Z,16.33
2023-02-25T02:07:48.605Z,15.23
2023-02-25T02:10:17.737Z,14.13
2023-02-25T02:12:48.595Z,14.77
2023-02-25T02:15:17.452Z,14.88
2023-02-25T02:17:52.626Z,14.27
2023-02-25T02:20:23.869Z,14.57
2023-02-25T02:23:22.187Z,14.90
2023-02-25T02:26:33.354Z,14.00
2023-02-25T02:29:25.638Z,15.15
2023-02-25T02:32:09.266Z,14.45
2023-02-25T02:34:46.501Z,14.68
2023-02-25T02:37:27.317Z,13.75
2023-02-25T02:40:08.972Z,14.25
2023-02-25T02:42:43.776Z,15.77
2023-02-25T02:45:21.118Z,14.57
2023-02-25T02:47:57.391Z,14.90
2023-02-25T02:50:30.888Z,16.58
2023-02-25T02:53:03.958Z,15.50
2023-02-25T02:55:37.722Z,16.40
2023-02-25T02:58:11.023Z,18.27
2023-02-25T03:00:42.318Z,17.08
2023-02-25T03:03:16.597Z,16.25
2023-02-25T03:05:50.032Z,15.80
2023-02-25T03:08:22.263Z,16.30
2023-02-25T03:10:50.499Z,14.68
2023-02-25T03:13:19.050Z,17.35
2023-02-25T03:15:49.202Z,16.65
2023-02-25T03:18:24.915Z,15.60
2023-02-25T03:20:55.151Z,16.35
2023-02-25T03:23:28.197Z,14.55
2023-02-25T03:26:01.722Z,16.42
2023-02-25T03:28:34.976Z,16.17
2023-02-25T03:31:07.574Z,15.60
2023-02-25T03:33:41.196Z,15.18
2023-02-25T03:36:14.793Z,16.45
2023-02-25T03:38:47.680Z,15.13
2023-02-25T03:41:18.036Z,14.75
2023-02-25T03:43:50.474Z,13.38
2023-02-25T03:46:21.373Z,13.23
2023-02-25T03:48:54.540Z,14.02
2023-02-25T03:51:28.406Z,13.02
2023-02-25T03:53:56.931Z,12.55
2023-02-25T03:56:31.206Z,12.40
2023-02-25T03:58:59.620Z,12.43
2023-02-25T04:01:31.434Z,12.27
2023-02-25T04:04:03.181Z,13.43
2023-02-25T04:06:31.949Z,13.95
2023-02-25T04:09:00.357Z,13.25
2023-02-25T04:11:29.858Z,12.25
2023-02-25T04:13:58.132Z,12.55
2023-02-25T04:16:28.413Z,12.88
2023-02-25T04:19:13.217Z,12.70
2023-02-25T04:21:53.368Z,12.88
2023-02-25T04:24:21.620Z,13.95
2023-02-25T04:27:01.808Z,11.93
2023-02-25T04:33:14.358Z,11.55
2023-02-25T04:35:45.896Z,13.30
2023-02-25T04:38:39.791Z,13.63
2023-02-25T04:41:40.528Z,12.77
2023-02-25T04:53:31.947Z,12.98
2023-02-25T05:08:45.715Z,12.90
2023-02-25T05:14:10.835Z,12.52
2023-02-25T05:24:24.903Z,10.98
2023-02-25T05:30:45.136Z,11.23
2023-02-25T05:33:52.272Z,11.52
2023-02-25T05:40:22.069Z,10.25
2023-02-25T05:43:00.572Z,10.80
2023-02-25T05:49:23.846Z,11.90
2023-02-25T05:52:47.322Z,11.60
2023-02-25T06:08:51.293Z,11.98
2023-02-25T06:30:02.672Z,14.07
2023-02-25T06:41:35.033Z,15.30
2023-02-25T06:44:48.853Z,15.88
2023-02-25T06:51:36.979Z,16.35
2023-02-25T06:54:05.809Z,17.60
2023-02-25T07:00:13.100Z,17.00
2023-02-25T07:02:47.610Z,16.90
2023-02-25T07:10:17.621Z,16.60
2023-02-25T07:13:39.199Z,16.13
2023-02-25T07:16:44.365Z,16.23
2023-02-25T07:29:17.078Z,17.00
2023-02-25T07:44:34.873Z,16.63
2023-02-25T08:04:26.860Z,16.40
2023-02-25T08:12:20.834Z,16.40
2023-02-25T08:16:01.961Z,17.50
2023-02-25T08:18:32.179Z,17.50
2023-02-25T08:21:49.403Z,17.98
2023-02-25T08:28:38.236Z,17.27
2023-02-25T08:31:49.145Z,16.95
2023-02-25T08:34:26.075Z,17.77
2023-02-25T08:36:56.883Z,17.08
2023-02-25T08:39:25.240Z,19.15
2023-02-25T08:41:53.504Z,17.40
2023-02-25T08:47:59.721Z,16.30
2023-02-25T08:50:40.773Z,17.05
2023-02-25T08:53:09.278Z,15.55
2023-02-25T08:56:27.788Z,14.75
2023-02-25T08:59:47.897Z,17.05
2023-02-25T09:03:24.113Z,15.02
2023-02-25T09:06:54.804Z,15.60
2023-02-25T09:09:28.638Z,16.38
2023-02-25T09:12:00.445Z,16.33
2023-02-25T09:14:35.164Z,16.65
2023-02-25T09:17:09.451Z,16.27
2023-02-25T09:19:39.088Z,16.08
2023-02-25T09:22:42.496Z,16.35
2023-02-25T09:25:53.424Z,16.60
2023-02-25T09:28:24.703Z,15.57
2023-02-25T09:30:53.334Z,15.75
2023-02-25T09:33:25.452Z,16.02
2023-02-25T09:36:10.980Z,14.88
2023-02-25T09:38:54.284Z,14.90
2023-02-25T09:41:44.665Z,13.20
2023-02-25T09:44:21.654Z,14.13
2023-02-25T09:47:07.754Z,11.82
2023-02-25T09:49:39.766Z,9.95
2023-02-25T09:52:16.973Z,10.43
2023-02-25T09:54:47.688Z,8.82
2023-02-25T09:57:22.586Z,10.32
2023-02-25T09:59:53.683Z,11.27
2023-02-25T10:02:28.519Z,10.50
2023-02-25T10:05:50.907Z,10.43
2023-02-25T10:08:23.419Z,9.40
2023-02-25T10:11:03.882Z,10.68
2023-02-25T10:13:45.550Z,11.15
2023-02-25T10:16:37.140Z,12.48
2023-02-25T10:19:19.802Z,11.70
2023-02-25T10:22:18.511Z,12.10
2023-02-25T10:27:55.203Z,13.48
2023-02-25T10:30:47.059Z,12.73
2023-02-25T10:33:21.464Z,13.40
2023-02-25T10:35:59.919Z,12.85
2023-02-25T10:38:28.365Z,8.82
2023-02-25T10:41:04.516Z,7.60
2023-02-25T10:43:52.294Z,7.93
2023-02-25T10:46:33.318Z,6.75
2023-02-25T10:49:26.381Z,6.97
2023-02-25T10:52:04.178Z,6.45
2023-02-25T10:54:55.529Z,6.70
2023-02-25T10:57:27.538Z,7.30
2023-02-25T11:00:02.571Z,7.32
2023-02-25T11:02:41.070Z,8.07
2023-02-25T11:05:31.569Z,7.97
2023-02-25T11:08:00.083Z,8.48
2023-02-25T11:11:00.996Z,6.65
2023-02-25T11:13:32.512Z,8.07
2023-02-25T11:16:06.790Z,7.70
2023-02-25T11:18:38.317Z,8.15
2023-02-25T11:21:08.365Z,8.32
2023-02-25T11:23:41.101Z,8.07
2023-02-25T11:26:15.011Z,7.95
2023-02-25T11:28:48.009Z,8.85
2023-02-25T11:31:20.119Z,8.43
2023-02-25T11:34:07.465Z,8.35
2023-02-25T11:36:37.255Z,9.07
2023-02-25T11:39:17.674Z,8.38
2023-02-25T11:41:52.088Z,10.02
2023-02-25T11:44:30.434Z,9.75
2023-02-25T11:47:04.462Z,8.38
2023-02-25T11:49:50.751Z,9.60
2023-02-25T11:52:26.582Z,9.82
2023-02-25T11:55:18.840Z,10.25
2023-02-25T11:58:00.007Z,9.55
2023-02-25T12:00:36.725Z,9.98
2023-02-25T12:03:28.985Z,8.90
2023-02-25T12:06:11.650Z,9.63
2023-02-25T12:08:59.504Z,9.95
2023-02-25T12:11:53.918Z,10.13
2023-02-25T12:14:59.004Z,8.25
2023-02-25T12:21:19.425Z,8.43
2023-02-25T12:24:37.206Z,8.98
2023-02-25T12:27:47.796Z,8.80
2023-02-25T12:31:00.964Z,8.45
2023-02-25T12:33:47.000Z,9.18
2023-02-25T12:36:46.045Z,8.40
2023-02-25T12:39:31.726Z,6.63
2023-02-25T12:42:12.385Z,5.47
2023-02-25T12:45:35.475Z,4.72
2023-02-25T12:48:30.105Z,4.18
2023-02-25T12:51:14.959Z,5.15
2023-02-25T12:53:54.665Z,5.32
2023-02-25T12:56:59.583Z,5.38
2023-02-25T12:59:51.284Z,4.53
2023-02-25T13:02:51.503Z,4.35
2023-02-25T13:05:43.157Z,5.18
2023-02-25T13:08:30.884Z,5.03
2023-02-25T13:11:05.074Z,4.63
2023-02-25T13:13:54.970Z,5.40
2023-02-25T13:16:42.410Z,5.05
2023-02-25T13:19:37.360Z,5.38
2023-02-25T13:22:18.256Z,6.07
2023-02-25T13:24:51.145Z,5.38
2023-02-25T13:27:52.240Z,5.35
2023-02-25T13:30:30.916Z,6.57
2023-02-25T13:33:15.958Z,5.15
2023-02-25T13:35:54.847Z,5.22
2023-02-25T13:38:37.886Z,5.85
2023-02-25T13:41:29.052Z,5.25
2023-02-25T13:44:28.305Z,4.97
2023-02-25T13:47:38.645Z,4.72
2023-02-25T13:50:49.494Z,5.00
2023-02-25T13:53:45.406Z,4.50
2023-02-25T13:56:43.804Z,4.03
2023-02-25T13:59:29.966Z,4.13
2023-02-25T14:02:15.168Z,4.18
2023-02-25T14:05:05.212Z,4.07
2023-02-25T14:07:56.062Z,3.60
2023-02-25T14:10:39.017Z,5.35
2023-02-25T14:13:52.692Z,3.80
2023-02-25T14:16:44.923Z,4.80
2023-02-25T14:19:38.229Z,5.05
2023-02-25T14:22:39.581Z,5.30
2023-02-25T14:25:22.088Z,4.85
2023-02-25T14:28:01.277Z,5.63
2023-02-25T14:30:39.766Z,4.85
2023-02-25T14:33:31.959Z,5.20
2023-02-25T14:36:26.834Z,5.28
2023-02-25T14:39:23.769Z,5.38
2023-02-25T14:42:18.750Z,5.03
2023-02-25T14:44:57.428Z,5.60
2023-02-25T14:47:53.865Z,4.95
2023-02-25T14:50:26.693Z,5.60
2023-02-25T14:53:23.227Z,5.18
2023-02-25T15:00:14.534Z,6.78
2023-02-25T15:03:04.247Z,6.13
2023-02-25T15:05:42.625Z,6.43
2023-02-25T15:08:29.157Z,6.93
2023-02-25T15:11:25.978Z,7.13
2023-02-25T15:14:37.241Z,7.75
2023-02-25T15:17:48.078Z,7.63
2023-02-25T15:20:33.113Z,8.77
2023-02-25T15:23:14.618Z,6.95
2023-02-25T15:25:49.959Z,7.57
2023-02-25T15:28:54.963Z,7.82
2023-02-25T15:31:41.758Z,7.38
2023-02-25T15:34:35.681Z,6.65
2023-02-25T15:37:33.966Z,7.20
2023-02-25T15:40:52.254Z,8.25
2023-02-25T15:43:43.814Z,7.85
2023-02-25T15:46:48.394Z,7.72
2023-02-25T15:49:37.796Z,6.88
2023-02-25T15:52:07.593Z,8.15
2023-02-25T15:55:14.866Z,6.88
2023-02-25T15:57:44.432Z,9.32
2023-02-25T16:01:01.625Z,8.73
2023-02-25T16:03:57.042Z,6.45
2023-02-25T16:06:32.497Z,7.85
2023-02-25T16:09:08.137Z,7.68
2023-02-25T16:11:40.411Z,7.30
2023-02-25T16:14:15.568Z,7.63
2023-02-25T16:16:50.815Z,6.85
2023-02-25T16:19:22.601Z,7.15
2023-02-25T16:21:55.116Z,7.47
2023-02-25T16:24:25.062Z,7.10
2023-02-25T16:27:00.364Z,7.10
2023-02-25T16:29:45.981Z,6.93
2023-02-25T16:32:27.589Z,8.15
2023-02-25T16:35:02.503Z,7.00
2023-02-25T16:37:37.361Z,8.15
2023-02-25T16:40:25.423Z,7.90
2023-02-25T16:42:56.642Z,8.57
2023-02-25T16:45:32.427Z,8.15
2023-02-25T16:48:05.648Z,7.80
2023-02-25T16:50:41.365Z,9.02
2023-02-25T16:53:19.493Z,7.28
2023-02-25T16:55:55.500Z,9.13
2023-02-25T16:58:27.997Z,8.60
2023-02-25T17:00:58.395Z,7.80
2023-02-25T17:03:30.993Z,9.88
2023-02-25T17:06:06.496Z,9.77
2023-02-25T17:08:39.781Z,9.55
2023-02-25T17:11:08.204Z,12.00
2023-02-25T17:13:41.729Z,10.07
2023-02-25T17:16:21.373Z,10.18
2023-02-25T17:18:54.129Z,9.63
2023-02-25T17:21:27.491Z,9.30
2023-02-25T17:23:56.958Z,9.13
2023-02-25T17:26:26.044Z,9.73
2023-02-25T17:28:59.521Z,12.40
2023-02-25T17:31:29.545Z,15.50
2023-02-25T17:34:00.844Z,12.45
2023-02-25T17:36:31.582Z,13.10
2023-02-25T17:39:02.657Z,12.23
2023-02-25T17:41:35.545Z,11.98
2023-02-25T17:44:05.765Z,16.02
2023-02-25T17:46:38.175Z,12.90
2023-02-25T17:49:19.964Z,13.05
2023-02-25T17:51:54.362Z,14.35
2023-02-25T17:54:24.861Z,12.93
2023-02-25T17:56:58.748Z,12.43
2023-02-25T17:59:38.274Z,12.27
2023-02-25T18:02:32.621Z,11.68
2023-02-25T18:05:22.331Z,12.27
2023-02-25T18:08:11.167Z,12.48
2023-02-25T18:10:48.442Z,11.32
2023-02-25T18:13:28.032Z,12.30
2023-02-25T18:16:42.331Z,12.00
2023-02-25T18:19:28.975Z,12.40
2023-02-25T18:21:57.308Z,12.63
2023-02-25T18:24:29.275Z,11.68
2023-02-25T18:27:19.878Z,12.60
2023-02-25T18:29:48.244Z,11.50
2023-02-25T18:32:18.123Z,11.95
2023-02-25T18:34:46.467Z,12.35
2023-02-25T18:37:17.455Z,11.88
2023-02-25T18:39:47.360Z,11.88
2023-02-25T18:42:16.806Z,11.75
2023-02-25T18:44:52.812Z,12.15
2023-02-25T18:47:40.110Z,13.30
2023-02-25T18:50:10.074Z,13.38
2023-02-25T18:52:42.770Z,12.30
2023-02-25T18:55:16.863Z,12.70
2023-02-25T18:57:45.575Z,13.55
2023-02-25T19:00:15.237Z,12.90
2023-02-25T19:02:49.439Z,13.80
2023-02-25T19:05:18.858Z,13.10
2023-02-25T19:07:47.394Z,15.20
2023-02-25T19:10:18.705Z,15.30
2023-02-25T19:12:49.516Z,14.75
2023-02-25T19:15:27.652Z,14.35
2023-02-25T19:17:57.732Z,15.35
2023-02-25T19:20:26.221Z,14.57
2023-02-25T19:22:54.945Z,13.35
2023-02-25T19:25:25.996Z,13.70
2023-02-25T19:27:56.473Z,12.07
2023-02-25T19:30:27.312Z,11.93
2023-02-25T19:33:04.851Z,12.48
2023-02-25T19:35:36.135Z,11.25
2023-02-25T19:38:04.967Z,10.80
2023-02-25T19:40:42.949Z,11.75
2023-02-25T19:43:12.050Z,10.85
2023-02-25T19:45:41.473Z,11.65
2023-02-25T19:48:11.861Z,10.85
2023-02-25T19:50:42.232Z,10.45
2023-02-25T19:53:11.286Z,11.43
2023-02-25T19:55:44.296Z,10.27
2023-02-25T19:58:15.520Z,10.30
2023-02-25T20:04:14.264Z,10.13
2023-02-25T20:06:53.066Z,10.52
2023-02-25T20:12:53.254Z,8.95
2023-02-25T20:15:41.702Z,9.15
2023-02-25T20:18:15.099Z,9.80
2023-02-25T20:21:33.138Z,9.18
2023-02-25T20:24:19.898Z,8.55
2023-02-25T20:27:07.490Z,7.80
2023-02-25T20:29:47.107Z,8.38
2023-02-25T20:32:16.398Z,8.40
2023-02-25T20:34:45.178Z,9.57
2023-02-25T20:37:20.241Z,8.75
2023-02-25T20:39:55.025Z,8.35
2023-02-25T20:42:34.440Z,9.70
2023-02-25T20:45:03.322Z,8.55
2023-02-25T20:47:35.057Z,9.57
2023-02-25T20:50:04.720Z,9.20
2023-02-25T20:52:57.612Z,9.60
2023-02-25T20:55:40.880Z,9.60
2023-02-25T20:58:10.891Z,9.40
2023-02-25T21:00:39.462Z,9.27
2023-02-25T21:03:09.020Z,9.75
2023-02-25T21:05:37.401Z,8.77
2023-02-25T21:08:07.372Z,9.75
2023-02-25T21:10:35.974Z,9.50
2023-02-25T21:13:09.388Z,8.73
2023-02-25T21:15:52.889Z,7.68
2023-02-25T21:18:49.851Z,9.07
2023-02-25T21:24:37.240Z,6.85
2023-02-25T21:27:29.725Z,6.85
2023-02-25T21:30:11.238Z,5.90
2023-02-25T21:32:39.771Z,6.93
2023-02-25T21:35:11.981Z,6.47
2023-02-25T21:38:47.628Z,6.63
2023-02-25T21:41:36.864Z,6.63
2023-02-25T21:44:10.476Z,6.90
2023-02-25T21:47:13.252Z,6.90
2023-02-25T21:54:43.956Z,6.90
2023-02-25T22:04:30.249Z,7.82
2023-02-25T22:07:32.048Z,7.80
2023-02-25T22:10:35.440Z,7.35
2023-02-25T22:13:50.407Z,7.80
2023-02-25T22:16:33.023Z,7.78
2023-02-25T22:19:15.166Z,6.85
2023-02-25T22:21:57.027Z,6.28
2023-02-25T22:24:51.756Z,6.80
2023-02-25T22:34:49.570Z,6.70
2023-02-25T22:37:17.801Z,6.80
2023-02-25T22:40:43.476Z,7.97
2023-02-25T22:43:30.367Z,7.05
2023-02-25T22:49:58.047Z,8.18
2023-02-25T22:52:56.385Z,8.00
2023-02-25T22:55:52.387Z,8.02
2023-02-25T22:58:30.453Z,8.10
2023-02-25T23:00:59.142Z,7.05
2023-02-25T23:06:44.785Z,6.57
2023-02-25T23:09:49.004Z,7.65
2023-02-25T23:12:21.542Z,8.43
2023-02-25T23:14:49.856Z,7.43
2023-02-25T23:17:32.431Z,7.65
2023-02-25T23:20:10.394Z,6.35
2023-02-25T23:22:49.656Z,6.55
2023-02-25T23:25:20.588Z,6.68
2023-02-25T23:28:00.490Z,7.03
2023-02-25T23:30:29.465Z,7.80
2023-02-25T23:33:01.028Z,7.10
2023-02-25T23:35:29.490Z,6.72
2023-02-25T23:38:02.688Z,7.28
2023-02-25T23:40:30.960Z,6.45
2023-02-25T23:43:02.508Z,6.35
2023-02-25T23:45:31.194Z,6.25
2023-02-25T23:48:00.899Z,6.20
2023-02-25T23:50:29.285Z,6.05
2023-02-25T23:52:59.080Z,5.53
2023-02-25T23:55:29.216Z,5.75
2023-02-25T23:57:57.543Z,6.05
